Time;durP1;ratioP1;P1;durP2;ratioP2;P2;SDS_P1;SDS_P2;PMS_P1;PMS_P2;Temp;Humidity;BMP_temperature;BMP_pressure;BME280_temperature;BME280_humidity;BME280_pressure;Samples;Min_cycle;Max_cycle;Signal;HPM_P1;HPM_P2
2023/05/08 00:02:24;;;;;;;4.63;4.10;;;9.80;99.90;;;;;;5031548;28;20584;-66
2023/05/08 00:04:50;;;;;;;4.10;3.80;;;9.90;99.90;;;;;;5025584;28;20206;-67
2023/05/08 00:07:15;;;;;;;3.73;3.43;;;9.80;99.90;;;;;;5030057;28;20185;-66
2023/05/08 00:09:41;;;;;;;4.23;3.63;;;9.80;99.90;;;;;;5025995;28;20253;-66
2023/05/08 00:12:06;;;;;;;4.30;3.90;;;9.70;99.90;;;;;;5028179;28;20202;-66
2023/05/08 00:14:32;;;;;;;6.83;4.00;;;9.90;99.90;;;;;;5025052;28;20593;-66
2023/05/08 00:16:57;;;;;;;5.27;4.47;;;9.80;99.90;;;;;;5027279;28;20201;-67
2023/05/08 00:19:23;;;;;;;4.40;4.00;;;9.90;99.90;;;;;;5026389;28;20232;-66
2023/05/08 00:21:48;;;;;;;4.20;3.90;;;9.90;99.90;;;;;;5025935;28;20227;-65
2023/05/08 00:24:14;;;;;;;4.23;3.83;;;9.80;99.90;;;;;;5027047;28;20684;-64
2023/05/08 00:26:40;;;;;;;4.83;4.33;;;9.80;99.90;;;;;;5026138;28;20241;-67
2023/05/08 00:29:06;;;;;;;3.90;3.60;;;9.70;99.90;;;;;;5027405;28;20218;-65
2023/05/08 00:31:31;;;;;;;3.90;3.60;;;9.60;99.90;;;;;;5027494;28;20203;-66
2023/05/08 00:33:57;;;;;;;5.13;3.90;;;9.60;99.90;;;;;;5027741;28;20686;-66
2023/05/08 00:36:22;;;;;;;3.90;3.60;;;9.60;99.90;;;;;;5027648;28;20236;-66
2023/05/08 00:38:48;;;;;;;4.70;4.27;;;9.50;99.90;;;;;;5026206;28;20290;-66
2023/05/08 00:41:13;;;;;;;4.50;4.10;;;9.60;99.90;;;;;;5027061;28;20213;-66
2023/05/08 00:43:39;;;;;;;4.20;3.90;;;9.50;99.90;;;;;;5025990;28;20188;-66
2023/05/08 00:46:05;;;;;;;4.43;3.90;;;9.40;99.90;;;;;;5026434;28;20212;-66
2023/05/08 00:48:33;;;;;;;4.67;3.67;;;9.50;99.90;;;;;;5029976;28;20195;-66
2023/05/08 00:51:01;;;;;;;6.43;4.23;;;9.50;99.90;;;;;;5023058;28;20204;-66
2023/05/08 00:53:29;;;;;;;5.00;4.13;;;9.50;99.90;;;;;;5031152;28;20295;-66
2023/05/08 00:55:54;;;;;;;4.53;4.13;;;9.50;99.90;;;;;;5023767;28;20257;-66
2023/05/08 00:58:21;;;;;;;4.47;3.83;;;9.50;99.90;;;;;;5027135;28;20715;-66
2023/05/08 01:00:49;;;;;;;8.40;4.80;;;9.60;99.90;;;;;;5026963;28;20284;-66
2023/05/08 01:03:15;;;;;;;5.07;4.63;;;9.40;99.90;;;;;;5024779;28;20203;-66
2023/05/08 01:05:40;;;;;;;4.90;4.20;;;9.20;99.90;;;;;;5026424;28;20207;-66
2023/05/08 01:08:06;;;;;;;4.77;4.37;;;9.30;99.90;;;;;;5024884;28;20766;-66
2023/05/08 01:10:41;;;;;;;6.13;4.27;;;9.30;99.90;;;;;;5025256;28;20212;-66
2023/05/08 01:13:19;;;;;;;5.67;5.03;;;9.10;99.90;;;;;;5018417;28;20211;-65
2023/05/08 01:15:56;;;;;;;5.30;4.90;;;9.10;99.90;;;;;;5025997;28;20194;-66
2023/05/08 01:18:51;;;;;;;5.90;4.87;;;9.20;99.90;;;;;;5025785;28;20541;-66
2023/05/08 01:21:31;;;;;;;6.27;4.70;;;9.30;99.90;;;;;;5021944;28;20246;-66
2023/05/08 01:24:25;;;;;;;5.70;4.93;;;9.30;99.90;;;;;;5025245;28;20616;-66
2023/05/08 01:27:07;;;;;;;5.37;4.90;;;9.30;99.90;;;;;;5022396;28;20286;-66
2023/05/08 01:30:02;;;;;;;5.93;4.93;;;9.30;99.90;;;;;;5027895;28;20758;-66
2023/05/08 01:32:37;;;;;;;5.97;5.00;;;9.20;99.90;;;;;;5027534;28;20198;-67
2023/05/08 01:35:06;;;;;;;4.83;4.50;;;9.20;99.90;;;;;;5017070;28;20280;-66
2023/05/08 01:37:55;;;;;;;5.10;4.70;;;9.10;99.90;;;;;;5026480;28;20195;-66
2023/05/08 01:40:50;;;;;;;5.57;5.07;;;9.00;99.90;;;;;;5021839;28;20302;-66
2023/05/08 01:43:28;;;;;;;5.53;4.77;;;9.00;99.90;;;;;;5018431;28;20219;-65
2023/05/08 01:45:55;;;;;;;5.97;5.30;;;9.00;99.90;;;;;;5025839;28;20561;-65
2023/05/08 01:48:31;;;;;;;5.73;5.13;;;9.00;99.90;;;;;;5025531;28;20286;-65
2023/05/08 01:51:11;;;;;;;5.27;4.77;;;8.90;99.90;;;;;;5022046;28;20249;-65
2023/05/08 01:53:41;;;;;;;5.73;5.17;;;8.80;99.90;;;;;;5026058;28;20203;-65
2023/05/08 01:56:10;;;;;;;5.83;5.33;;;8.80;99.90;;;;;;5026471;28;20453;-65
2023/05/08 01:58:37;;;;;;;5.53;5.03;;;8.80;99.90;;;;;;5026357;28;20210;-65
2023/05/08 02:01:03;;;;;;;4.93;4.43;;;8.80;99.90;;;;;;5026150;28;20681;-65
2023/05/08 02:03:32;;;;;;;7.50;5.37;;;8.60;99.90;;;;;;5024066;28;20290;-66
2023/05/08 02:05:59;;;;;;;5.03;4.60;;;8.70;99.90;;;;;;5025957;28;20215;-65
2023/05/08 02:08:26;;;;;;;5.40;4.90;;;8.70;99.90;;;;;;5028724;28;20683;-66
2023/05/08 02:10:53;;;;;;;5.10;4.60;;;8.70;99.90;;;;;;5022893;28;20212;-66
2023/05/08 02:13:20;;;;;;;5.53;5.00;;;8.70;99.90;;;;;;5024936;28;20246;-65
2023/05/08 02:15:48;;;;;;;7.13;5.63;;;8.70;99.90;;;;;;5027060;28;20631;-65
2023/05/08 02:18:17;;;;;;;6.07;5.53;;;8.70;99.90;;;;;;5026451;28;20219;-66
2023/05/08 02:20:43;;;;;;;5.50;5.00;;;8.60;99.90;;;;;;5026685;28;20199;-66
2023/05/08 02:23:09;;;;;;;6.37;5.07;;;8.60;99.90;;;;;;5027723;28;20203;-65
2023/05/08 02:25:36;;;;;;;5.70;5.20;;;8.50;99.90;;;;;;5029489;28;20256;-65
2023/05/08 02:28:03;;;;;;;5.43;4.93;;;8.60;99.90;;;;;;5028626;28;20579;-66
2023/05/08 02:30:29;;;;;;;5.87;5.37;;;8.50;99.90;;;;;;5029207;28;21052;-66
2023/05/08 02:32:57;;;;;;;6.17;5.67;;;8.60;99.90;;;;;;5028723;28;20217;-66
2023/05/08 02:35:24;;;;;;;5.70;5.17;;;8.40;99.90;;;;;;5040209;28;20221;-66
2023/05/08 02:37:55;;;;;;;7.63;6.03;;;8.40;99.90;;;;;;5038656;28;20202;-66
2023/05/08 02:40:23;;;;;;;5.13;4.73;;;8.50;99.90;;;;;;5039337;28;20214;-66
2023/05/08 02:42:49;;;;;;;6.47;5.27;;;8.60;99.90;;;;;;5025076;28;20217;-66
2023/05/08 02:45:15;;;;;;;6.77;6.07;;;8.40;99.90;;;;;;5038436;28;20203;-66
2023/05/08 02:48:00;;;;;;;7.40;5.37;;;8.40;99.90;;;;;;5038888;28;20332;-65
2023/05/08 02:50:41;;;;;;;6.80;6.00;;;8.40;99.90;;;;;;5039347;28;20206;-66
2023/05/08 02:53:14;;;;;;;5.67;5.27;;;8.20;99.90;;;;;;5038691;28;20363;-66
2023/05/08 02:55:47;;;;;;;6.00;5.40;;;8.30;99.90;;;;;;5036571;28;20305;-66
2023/05/08 02:58:22;;;;;;;5.80;5.30;;;8.40;99.90;;;;;;5023225;28;20230;-66
2023/05/08 03:01:06;;;;;;;7.53;5.83;;;8.40;99.90;;;;;;5021384;28;20218;-66
2023/05/08 03:04:02;;;;;;;6.67;6.07;;;8.50;99.90;;;;;;5026906;28;20219;-66
2023/05/08 03:06:34;;;;;;;7.83;5.70;;;8.40;99.90;;;;;;5038436;28;20257;-66
2023/05/08 03:09:02;;;;;;;6.10;5.50;;;8.40;99.90;;;;;;5038457;28;20227;-66
2023/05/08 03:11:37;;;;;;;6.03;5.53;;;8.40;99.90;;;;;;5038420;28;20203;-66
2023/05/08 03:14:05;;;;;;;6.47;5.73;;;8.40;99.90;;;;;;5028871;28;20207;-66
2023/05/08 03:16:33;;;;;;;6.77;6.07;;;8.30;99.90;;;;;;5037947;28;20746;-66
2023/05/08 03:19:03;;;;;;;6.57;5.97;;;8.30;99.90;;;;;;5038684;28;20622;-64
2023/05/08 03:21:31;;;;;;;6.00;5.40;;;8.40;99.90;;;;;;5038247;28;21086;-65
2023/05/08 03:23:58;;;;;;;7.13;5.97;;;8.50;99.90;;;;;;5037977;28;20199;-65
2023/05/08 03:26:25;;;;;;;6.77;6.07;;;8.40;99.90;;;;;;5031423;28;20223;-66
2023/05/08 03:28:52;;;;;;;6.60;6.00;;;8.50;99.90;;;;;;5035471;28;20294;-66
2023/05/08 03:31:20;;;;;;;6.60;5.97;;;8.30;99.90;;;;;;5028593;28;20203;-65
2023/05/08 03:33:46;;;;;;;6.40;5.80;;;8.30;99.90;;;;;;5026910;28;20215;-65
2023/05/08 03:36:13;;;;;;;6.93;6.27;;;8.30;99.90;;;;;;5036761;28;20202;-65
2023/05/08 03:38:39;;;;;;;6.83;6.23;;;8.20;99.90;;;;;;5030334;28;20207;-65
2023/05/08 03:41:05;;;;;;;6.77;6.17;;;8.20;99.90;;;;;;5038075;28;20206;-66
2023/05/08 03:43:32;;;;;;;6.23;5.63;;;8.30;99.90;;;;;;5032819;28;20199;-67
2023/05/08 03:45:59;;;;;;;6.30;5.80;;;8.20;99.90;;;;;;5036116;28;20238;-65
2023/05/08 03:48:26;;;;;;;6.07;5.47;;;8.10;99.90;;;;;;5033880;28;20649;-65
2023/05/08 03:50:52;;;;;;;6.97;6.37;;;8.10;99.90;;;;;;5030803;28;20207;-65
2023/05/08 03:53:18;;;;;;;6.40;5.80;;;8.10;99.90;;;;;;5035143;28;20202;-66
2023/05/08 03:55:43;;;;;;;7.13;6.53;;;8.00;99.90;;;;;;5037968;28;20563;-65
2023/05/08 03:58:37;;;;;;;5.63;5.23;;;8.10;99.90;;;;;;5035294;28;20729;-64
2023/05/08 04:01:02;;;;;;;6.00;5.50;;;8.10;99.90;;;;;;5037118;28;20696;-65
2023/05/08 04:03:35;;;;;;;5.87;5.37;;;7.80;99.90;;;;;;5037231;28;20207;-65
2023/05/08 04:06:19;;;;;;;8.00;6.23;;;7.90;99.90;;;;;;5027801;28;20195;-65
2023/05/08 04:08:52;;;;;;;6.50;5.90;;;8.00;99.90;;;;;;5037665;28;20195;-65
2023/05/08 04:11:28;;;;;;;6.97;6.00;;;8.20;99.90;;;;;;5037225;28;20545;-65
2023/05/08 04:14:00;;;;;;;6.23;5.73;;;8.20;99.90;;;;;;5036557;28;20211;-65
2023/05/08 04:16:28;;;;;;;7.07;6.47;;;8.00;99.90;;;;;;5026256;28;20208;-65
2023/05/08 04:19:00;;;;;;;7.30;6.57;;;8.00;99.90;;;;;;5037330;28;20195;-65
2023/05/08 04:21:30;;;;;;;6.93;6.30;;;8.00;99.90;;;;;;5034668;28;20631;-65
2023/05/08 04:23:57;;;;;;;8.87;6.13;;;8.00;99.90;;;;;;5037172;28;20503;-65
2023/05/08 04:26:23;;;;;;;6.60;6.00;;;7.90;99.90;;;;;;5027007;28;20254;-66
2023/05/08 04:28:49;;;;;;;7.87;6.47;;;8.00;99.90;;;;;;5032123;28;20235;-66
2023/05/08 04:31:16;;;;;;;7.83;6.03;;;8.00;99.90;;;;;;5030719;28;20945;-66
2023/05/08 04:33:44;;;;;;;7.30;5.87;;;8.00;99.90;;;;;;5026174;28;20209;-66
2023/05/08 04:36:12;;;;;;;6.70;6.10;;;7.90;99.90;;;;;;5032238;28;20209;-66
2023/05/08 04:38:38;;;;;;;6.40;5.87;;;8.00;99.90;;;;;;5035463;28;20261;-65
2023/05/08 04:41:04;;;;;;;7.67;6.30;;;8.00;99.90;;;;;;5036225;28;20708;-65
2023/05/08 04:43:29;;;;;;;7.00;6.00;;;7.90;99.90;;;;;;5033887;28;20198;-65
2023/05/08 04:45:55;;;;;;;6.70;6.00;;;7.90;99.90;;;;;;5034610;28;20325;-65
2023/05/08 04:48:20;;;;;;;6.63;5.93;;;8.00;99.90;;;;;;5031874;28;20647;-66
2023/05/08 04:50:46;;;;;;;6.90;6.23;;;8.00;99.90;;;;;;5036353;28;20198;-64
2023/05/08 04:53:11;;;;;;;6.97;6.30;;;8.10;99.90;;;;;;5036367;28;20198;-64
2023/05/08 04:55:37;;;;;;;6.70;6.20;;;8.10;99.90;;;;;;5026142;28;20602;-65
2023/05/08 04:58:02;;;;;;;6.83;6.13;;;8.10;99.90;;;;;;5021368;28;20226;-65
2023/05/08 05:00:28;;;;;;;7.83;6.80;;;8.30;99.90;;;;;;5032262;28;20664;-65
2023/05/08 05:02:53;;;;;;;6.07;5.50;;;8.30;99.90;;;;;;5027034;28;20260;-66
2023/05/08 05:05:19;;;;;;;7.37;5.50;;;8.30;99.90;;;;;;5036404;28;20203;-65
2023/05/08 05:07:44;;;;;;;6.53;5.93;;;8.40;99.90;;;;;;5036162;28;20721;-65
2023/05/08 05:10:10;;;;;;;7.13;5.73;;;8.30;99.90;;;;;;5034157;28;20195;-66
2023/05/08 05:12:36;;;;;;;6.03;5.53;;;8.30;99.90;;;;;;5036323;28;20209;-66
2023/05/08 05:15:02;;;;;;;6.93;5.47;;;8.20;99.90;;;;;;5036163;28;20210;-65
2023/05/08 05:17:30;;;;;;;5.47;4.97;;;8.40;99.90;;;;;;5035957;28;20801;-65
2023/05/08 05:19:56;;;;;;;6.47;5.63;;;8.60;99.90;;;;;;5035949;28;20206;-65
2023/05/08 05:22:21;;;;;;;6.83;5.50;;;8.60;99.90;;;;;;5035363;28;20234;-65
2023/05/08 05:24:47;;;;;;;5.73;5.23;;;8.60;99.90;;;;;;5035659;28;20233;-65
2023/05/08 05:27:12;;;;;;;8.70;5.47;;;8.60;99.90;;;;;;5028453;28;20199;-65
2023/05/08 05:29:38;;;;;;;5.63;5.03;;;8.70;99.90;;;;;;5033296;28;20276;-65
2023/05/08 05:32:06;;;;;;;5.77;5.27;;;8.70;99.90;;;;;;5035307;28;20205;-65
2023/05/08 05:34:31;;;;;;;6.07;5.13;;;8.70;99.90;;;;;;5033954;28;20218;-65
2023/05/08 05:36:57;;;;;;;7.30;4.67;;;8.60;99.90;;;;;;5036364;28;20233;-65
2023/05/08 05:39:22;;;;;;;10.57;5.97;;;8.70;99.90;;;;;;5036005;28;20207;-67
2023/05/08 05:41:47;;;;;;;13.73;8.77;;;8.80;99.90;;;;;;5031188;28;20265;-67
2023/05/08 05:44:13;;;;;;;8.00;6.10;;;8.90;99.90;;;;;;5033238;28;20718;-67
2023/05/08 05:46:38;;;;;;;6.10;5.60;;;9.10;99.90;;;;;;5029996;28;20226;-64
2023/05/08 05:49:04;;;;;;;6.83;5.67;;;9.10;99.90;;;;;;5034333;28;20204;-63
2023/05/08 05:51:29;;;;;;;5.43;4.93;;;9.20;99.90;;;;;;5029801;28;20297;-65
2023/05/08 05:53:56;;;;;;;5.77;5.17;;;9.30;99.90;;;;;;5032204;28;20912;-63
2023/05/08 05:56:22;;;;;;;6.30;4.50;;;9.20;99.90;;;;;;5038782;28;20215;-62
2023/05/08 05:58:47;;;;;;;6.50;5.00;;;9.30;99.90;;;;;;5039550;28;20700;-63
2023/05/08 06:01:13;;;;;;;3.87;3.57;;;9.50;99.90;;;;;;5030364;28;20250;-62
2023/05/08 06:03:39;;;;;;;4.97;4.57;;;9.40;99.90;;;;;;5037364;28;20202;-62
2023/05/08 06:06:04;;;;;;;5.17;4.67;;;9.40;99.90;;;;;;5029916;28;20217;-63
2023/05/08 06:08:30;;;;;;;4.57;3.77;;;9.50;99.90;;;;;;5037998;28;20206;-63
2023/05/08 06:10:55;;;;;;;5.30;4.57;;;9.60;99.90;;;;;;5032039;28;20500;-62
2023/05/08 06:13:21;;;;;;;4.13;3.83;;;9.60;99.90;;;;;;5039673;28;21109;-63
2023/05/08 06:15:46;;;;;;;3.63;3.23;;;9.80;99.90;;;;;;5035461;28;20474;-62
2023/05/08 06:18:12;;;;;;;4.23;3.40;;;9.90;99.90;;;;;;5031984;28;20563;-61
2023/05/08 06:20:38;;;;;;;3.03;2.83;;;9.90;99.90;;;;;;5038415;28;20211;-62
2023/05/08 06:23:04;;;;;;;5.60;3.57;;;10.00;99.90;;;;;;5039222;28;20222;-62
2023/05/08 06:25:29;;;;;;;3.57;3.20;;;9.90;99.90;;;;;;5031304;28;20206;-62
2023/05/08 06:27:55;;;;;;;4.60;4.00;;;9.90;99.90;;;;;;5037476;28;20203;-62
2023/05/08 06:30:21;;;;;;;3.40;3.10;;;10.00;99.90;;;;;;5038469;28;20213;-62
2023/05/08 06:32:47;;;;;;;6.00;3.60;;;10.10;99.90;;;;;;5024522;28;20207;-62
2023/05/08 06:35:17;;;;;;;4.03;3.67;;;10.10;99.90;;;;;;5037569;28;20671;-62
2023/05/08 06:37:43;;;;;;;4.33;3.63;;;10.10;99.90;;;;;;5031717;28;20210;-62
2023/05/08 06:40:09;;;;;;;3.60;2.90;;;10.30;99.90;;;;;;5038423;28;20215;-63
2023/05/08 06:42:35;;;;;;;4.43;3.17;;;10.40;99.90;;;;;;5027357;28;20311;-63
2023/05/08 06:45:01;;;;;;;4.23;2.70;;;10.30;99.90;;;;;;5037131;28;20643;-62
2023/05/08 06:47:26;;;;;;;3.40;3.17;;;10.40;99.90;;;;;;5038890;28;20569;-63
2023/05/08 06:49:52;;;;;;;4.20;3.00;;;10.40;99.90;;;;;;5038293;28;20220;-63
2023/05/08 06:52:19;;;;;;;3.70;3.13;;;10.40;99.80;;;;;;5034509;28;20293;-63
2023/05/08 06:54:45;;;;;;;3.43;3.13;;;10.60;99.80;;;;;;5025879;28;20207;-61
2023/05/08 06:57:12;;;;;;;2.83;2.63;;;10.70;99.90;;;;;;5027984;28;20208;-62
2023/05/08 06:59:37;;;;;;;2.57;2.37;;;10.70;99.90;;;;;;5030157;28;20622;-62
2023/05/08 07:02:03;;;;;;;4.70;3.30;;;10.90;99.00;;;;;;5025724;28;20216;-62
2023/05/08 07:04:28;;;;;;;3.27;2.97;;;10.90;98.50;;;;;;5027962;28;20201;-63
2023/05/08 07:06:54;;;;;;;3.53;3.10;;;10.90;99.00;;;;;;5025318;28;20231;-62
2023/05/08 07:09:20;;;;;;;3.87;3.37;;;10.90;98.60;;;;;;5028602;28;20198;-63
2023/05/08 07:11:45;;;;;;;5.40;3.70;;;10.90;98.20;;;;;;5028737;28;20204;-62
2023/05/08 07:14:11;;;;;;;3.90;3.07;;;10.90;98.50;;;;;;5028157;28;20713;-63
2023/05/08 07:16:36;;;;;;;3.50;2.93;;;11.10;98.70;;;;;;5027067;28;20204;-67
2023/05/08 07:19:02;;;;;;;2.93;2.73;;;11.30;98.80;;;;;;5022818;28;20244;-63
2023/05/08 07:21:28;;;;;;;2.73;2.53;;;11.40;98.00;;;;;;5026497;28;20212;-62
2023/05/08 07:23:53;;;;;;;3.57;2.80;;;11.40;97.30;;;;;;5029207;28;20207;-63
2023/05/08 07:26:20;;;;;;;3.13;2.87;;;11.50;96.70;;;;;;5025122;28;20740;-63
2023/05/08 07:28:45;;;;;;;2.53;2.33;;;11.40;96.60;;;;;;5026154;28;20221;-62
2023/05/08 07:31:11;;;;;;;3.40;2.70;;;11.50;96.60;;;;;;5026519;28;20195;-62
2023/05/08 07:33:37;;;;;;;2.77;2.57;;;11.50;96.20;;;;;;5027844;28;20283;-63
2023/05/08 07:36:02;;;;;;;2.77;2.57;;;11.40;95.50;;;;;;5027057;28;20617;-65
2023/05/08 07:38:28;;;;;;;3.03;2.50;;;11.50;95.50;;;;;;5027595;28;20222;-63
2023/05/08 07:40:56;;;;;;;2.73;2.50;;;11.70;94.90;;;;;;5027611;28;20210;-63
2023/05/08 07:43:24;;;;;;;4.10;2.60;;;11.90;94.40;;;;;;5024633;28;20296;-64
2023/05/08 07:45:50;;;;;;;3.60;2.30;;;12.00;93.60;;;;;;5018385;28;20215;-62
2023/05/08 07:48:15;;;;;;;4.20;2.70;;;12.00;93.20;;;;;;5021500;28;21494;-64
2023/05/08 07:50:40;;;;;;;4.53;2.47;;;12.20;92.50;;;;;;5022103;28;20284;-62
2023/05/08 07:53:06;;;;;;;2.70;2.50;;;12.30;92.40;;;;;;5017840;28;20209;-62
2023/05/08 07:55:31;;;;;;;3.37;2.83;;;12.20;91.40;;;;;;5016233;28;20733;-65
2023/05/08 07:57:58;;;;;;;2.40;2.20;;;12.30;91.90;;;;;;5017233;28;20200;-63
2023/05/08 08:00:26;;;;;;;3.07;2.60;;;12.40;91.70;;;;;;5018589;28;20424;-66
2023/05/08 08:02:52;;;;;;;2.93;2.73;;;12.40;90.40;;;;;;5028042;28;20216;-64
2023/05/08 08:05:17;;;;;;;2.50;2.30;;;12.50;90.70;;;;;;5024306;28;20204;-75
2023/05/08 08:07:43;;;;;;;3.20;2.60;;;12.50;90.30;;;;;;5027803;28;20284;-74
2023/05/08 08:10:09;;;;;;;3.60;2.70;;;12.50;90.00;;;;;;5027001;28;20941;-75
2023/05/08 08:12:34;;;;;;;3.80;2.90;;;12.40;89.10;;;;;;5027244;28;20208;-68
2023/05/08 08:15:00;;;;;;;5.93;2.27;;;12.90;90.30;;;;;;5026872;28;20199;-70
2023/05/08 08:17:26;;;;;;;2.20;2.10;;;13.10;89.80;;;;;;5029953;28;20568;-69
2023/05/08 08:19:52;;;;;;;2.80;2.50;;;13.00;87.70;;;;;;5020704;28;20204;-66
2023/05/08 08:22:17;;;;;;;4.93;2.73;;;13.00;88.00;;;;;;5030695;28;20294;-66
2023/05/08 08:24:43;;;;;;;4.43;2.43;;;13.00;87.80;;;;;;5025105;28;20384;-65
2023/05/08 08:27:09;;;;;;;2.53;2.33;;;12.90;88.20;;;;;;5021659;28;20231;-67
2023/05/08 08:29:34;;;;;;;2.73;2.40;;;13.10;87.10;;;;;;5018988;28;20317;-64
2023/05/08 08:32:02;;;;;;;2.40;2.10;;;13.10;88.60;;;;;;5018418;28;20211;-67
2023/05/08 08:34:27;;;;;;;2.73;2.43;;;13.20;88.90;;;;;;5017285;28;20221;-63
2023/05/08 08:36:53;;;;;;;3.37;2.33;;;13.30;85.80;;;;;;5021562;28;20600;-63
2023/05/08 08:39:18;;;;;;;3.97;2.47;;;13.60;82.60;;;;;;5029878;28;20274;-63
2023/05/08 08:41:44;;;;;;;2.50;2.30;;;13.60;83.40;;;;;;5022258;28;20221;-62
2023/05/08 08:44:09;;;;;;;2.80;2.57;;;13.40;80.90;;;;;;5033283;28;20209;-67
2023/05/08 08:46:42;;;;;;;3.57;2.10;;;13.50;81.30;;;;;;5036462;28;20197;-65
2023/05/08 08:49:12;;;;;;;2.30;2.10;;;13.60;80.20;;;;;;5036300;28;20298;-64
2023/05/08 08:51:53;;;;;;;2.53;2.33;;;13.90;78.50;;;;;;5034313;28;20560;-65
2023/05/08 08:54:23;;;;;;;4.80;2.23;;;13.90;77.50;;;;;;5036018;28;20215;-66
2023/05/08 08:56:50;;;;;;;2.57;2.37;;;13.80;78.60;;;;;;5028165;28;20209;-66
2023/05/08 08:59:17;;;;;;;3.37;3.03;;;13.80;76.00;;;;;;5018808;28;20300;-65
2023/05/08 09:01:46;;;;;;;3.07;2.50;;;13.90;75.30;;;;;;5020657;28;20325;-68
2023/05/08 09:04:12;;;;;;;2.57;2.20;;;13.90;77.10;;;;;;5021182;28;20216;-66
2023/05/08 09:06:40;;;;;;;5.37;2.47;;;14.00;75.60;;;;;;5035698;28;20186;-65
2023/05/08 09:09:05;;;;;;;2.47;2.03;;;14.20;73.50;;;;;;5023614;28;20285;-64
2023/05/08 09:11:31;;;;;;;2.40;2.20;;;14.20;73.90;;;;;;5026412;28;20328;-64
2023/05/08 09:13:57;;;;;;;2.57;2.13;;;14.30;70.00;;;;;;5024730;28;20561;-66
2023/05/08 09:16:24;;;;;;;2.13;2.03;;;14.30;71.70;;;;;;5025331;28;20244;-68
2023/05/08 09:18:50;;;;;;;5.03;2.60;;;14.50;70.60;;;;;;5025701;28;20581;-66
2023/05/08 09:21:16;;;;;;;3.50;1.87;;;14.50;69.20;;;;;;5028220;28;20241;-65
2023/05/08 09:23:58;;;;;;;2.23;1.93;;;14.70;69.50;;;;;;5033999;28;20942;-64
2023/05/08 09:26:36;;;;;;;2.87;2.33;;;14.60;67.70;;;;;;5022712;28;20531;-65
2023/05/08 09:29:20;;;;;;;4.70;2.60;;;14.50;69.10;;;;;;5020928;28;20315;-67
2023/05/08 09:31:50;;;;;;;2.57;2.37;;;14.80;70.00;;;;;;5023510;28;20205;-65
2023/05/08 09:34:28;;;;;;;2.23;2.13;;;14.80;67.70;;;;;;5026004;28;20211;-66
2023/05/08 09:36:55;;;;;;;2.70;2.50;;;14.70;65.40;;;;;;5023031;28;20535;-66
2023/05/08 09:39:23;;;;;;;3.50;1.97;;;14.70;67.40;;;;;;5025641;28;20378;-67
2023/05/08 09:41:56;;;;;;;7.63;2.47;;;14.80;66.60;;;;;;5025586;28;20325;-67
2023/05/08 09:44:21;;;;;;;1.90;1.80;;;14.80;67.20;;;;;;5029468;28;20258;-69
2023/05/08 09:46:49;;;;;;;2.70;2.20;;;14.90;67.80;;;;;;5019744;28;20226;-68
2023/05/08 09:49:17;;;;;;;5.87;2.30;;;15.00;67.10;;;;;;5026776;28;20282;-70
2023/05/08 09:51:52;;;;;;;3.23;2.60;;;15.10;66.50;;;;;;5017368;28;20203;-67
2023/05/08 09:54:18;;;;;;;3.47;2.60;;;15.20;67.10;;;;;;5015820;28;20203;-63
2023/05/08 09:56:44;;;;;;;5.13;2.40;;;15.30;68.90;;;;;;5020848;28;20207;-64
2023/05/08 09:59:22;;;;;;;2.47;2.27;;;15.20;69.20;;;;;;5027160;28;20285;-66
2023/05/08 10:01:48;;;;;;;3.80;2.30;;;15.40;71.60;;;;;;5016333;28;20221;-65
2023/05/08 10:04:14;;;;;;;6.83;3.80;;;15.50;70.90;;;;;;5031410;28;20199;-66
2023/05/08 10:06:39;;;;;;;11.77;6.57;;;15.70;69.90;;;;;;5035746;28;20294;-66
2023/05/08 10:09:10;;;;;;;4.53;2.83;;;15.60;68.30;;;;;;5035195;28;20207;-66
2023/05/08 10:11:40;;;;;;;2.63;2.20;;;15.50;66.60;;;;;;5032804;28;20199;-66
2023/05/08 10:14:06;;;;;;;3.60;2.67;;;15.50;66.50;;;;;;5015390;28;20607;-64
2023/05/08 10:16:39;;;;;;;3.50;2.83;;;15.50;68.90;;;;;;5034251;28;20305;-64
2023/05/08 10:19:34;;;;;;;2.77;2.40;;;15.70;68.00;;;;;;5028280;28;20207;-62
2023/05/08 10:22:02;;;;;;;3.03;2.33;;;15.70;66.10;;;;;;5032093;28;20234;-63
2023/05/08 10:24:37;;;;;;;2.83;2.30;;;15.80;70.60;;;;;;5032684;28;20203;-66
2023/05/08 10:27:40;;;;;;;1.97;1.80;;;16.00;66.20;;;;;;5025650;28;20199;-69
2023/05/08 10:30:08;;;;;;;4.30;2.00;;;15.80;66.50;;;;;;5018503;28;20294;-64
2023/05/08 10:32:40;;;;;;;4.50;2.50;;;16.00;66.80;;;;;;5021514;28;20210;-63
2023/05/08 10:35:09;;;;;;;3.33;2.57;;;16.20;67.10;;;;;;5020981;28;20906;-66
2023/05/08 10:37:35;;;;;;;3.03;1.83;;;16.30;63.90;;;;;;5019109;28;20210;-65
2023/05/08 10:40:03;;;;;;;2.80;2.60;;;16.20;62.90;;;;;;5031021;28;20223;-65
2023/05/08 10:42:28;;;;;;;1.80;1.70;;;16.10;63.20;;;;;;5030141;28;20211;-66
2023/05/08 10:44:55;;;;;;;2.13;1.77;;;16.30;63.50;;;;;;5038021;28;20213;-66
2023/05/08 10:47:38;;;;;;;2.63;2.10;;;16.40;61.70;;;;;;5038397;28;20281;-66
2023/05/08 10:50:30;;;;;;;2.10;2.00;;;16.40;61.90;;;;;;5036677;28;20195;-65
2023/05/08 10:53:09;;;;;;;2.37;2.17;;;16.70;64.50;;;;;;5009646;28;20211;-66
2023/05/08 10:55:37;;;;;;;2.93;1.97;;;16.90;63.60;;;;;;5038572;28;20206;-66
2023/05/08 10:58:05;;;;;;;2.63;2.43;;;17.30;60.60;;;;;;5038131;28;20195;-66
2023/05/08 11:00:51;;;;;;;3.60;2.47;;;17.50;62.60;;;;;;5037225;28;20265;-67
2023/05/08 11:03:22;;;;;;;2.20;2.00;;;17.70;62.30;;;;;;5023371;28;20235;-67
2023/05/08 11:05:49;;;;;;;2.30;2.00;;;17.70;60.30;;;;;;5031267;28;20226;-67
2023/05/08 11:08:18;;;;;;;2.60;2.03;;;17.80;58.60;;;;;;5031560;28;20226;-67
2023/05/08 11:11:06;;;;;;;1.93;1.83;;;17.90;56.10;;;;;;5024565;28;20206;-67
2023/05/08 11:13:45;;;;;;;3.57;2.40;;;17.90;58.70;;;;;;5038130;28;20203;-66
2023/05/08 11:16:11;;;;;;;1.97;1.80;;;17.90;56.30;;;;;;5038080;28;20273;-67
2023/05/08 11:18:36;;;;;;;4.17;1.63;;;17.80;56.60;;;;;;5036534;28;20203;-65
2023/05/08 11:21:13;;;;;;;2.60;2.10;;;18.10;57.50;;;;;;5025748;28;20218;-63
2023/05/08 11:23:39;;;;;;;3.37;2.17;;;18.30;60.20;;;;;;5026548;28;20210;-67
2023/05/08 11:26:11;;;;;;;2.03;1.83;;;18.50;59.50;;;;;;5027136;28;20613;-64
2023/05/08 11:28:55;;;;;;;3.33;1.87;;;18.70;56.20;;;;;;5022591;28;20686;-63
2023/05/08 11:31:21;;;;;;;2.67;1.93;;;19.10;55.80;;;;;;5027884;28;20207;-63
2023/05/08 11:33:47;;;;;;;3.03;2.03;;;19.20;55.30;;;;;;5028109;28;21073;-63
2023/05/08 11:36:21;;;;;;;3.50;2.17;;;19.10;54.30;;;;;;5026431;28;20203;-64
2023/05/08 11:39:11;;;;;;;2.30;1.90;;;19.40;52.80;;;;;;5027254;28;20225;-66
2023/05/08 11:41:38;;;;;;;1.80;1.70;;;19.70;52.30;;;;;;5023822;28;20278;-67
2023/05/08 11:44:03;;;;;;;2.07;1.97;;;20.10;51.40;;;;;;5028063;28;20229;-66
2023/05/08 11:46:52;;;;;;;2.43;2.23;;;19.80;53.60;;;;;;5028013;28;20232;-67
2023/05/08 11:49:21;;;;;;;2.63;1.87;;;19.70;52.50;;;;;;5028559;28;20656;-66
2023/05/08 11:51:54;;;;;;;2.57;2.23;;;19.70;51.10;;;;;;5028232;28;20211;-65
2023/05/08 11:54:21;;;;;;;2.27;2.07;;;20.20;48.70;;;;;;5021517;28;20687;-68
2023/05/08 11:56:47;;;;;;;2.40;1.97;;;19.50;49.60;;;;;;5028044;28;20236;-66
2023/05/08 11:59:13;;;;;;;3.47;1.90;;;19.60;47.90;;;;;;5027975;28;20205;-68
2023/05/08 12:01:38;;;;;;;3.47;1.90;;;19.40;47.60;;;;;;5028445;28;20623;-68
2023/05/08 12:04:11;;;;;;;2.63;1.93;;;19.50;48.20;;;;;;5026103;28;20227;-68
2023/05/08 12:06:39;;;;;;;3.13;1.90;;;20.10;49.70;;;;;;5025064;28;21828;-69
2023/05/08 12:09:17;;;;;;;2.73;2.30;;;20.20;46.60;;;;;;5026963;28;20223;-67
2023/05/08 12:11:44;;;;;;;1.93;1.70;;;20.10;48.30;;;;;;5019665;28;20530;-67
2023/05/08 12:14:11;;;;;;;1.90;1.70;;;20.00;48.70;;;;;;5027783;28;20216;-68
2023/05/08 12:16:38;;;;;;;2.93;1.63;;;20.50;48.50;;;;;;5027726;28;20213;-68
2023/05/08 12:19:11;;;;;;;2.50;1.83;;;20.70;46.40;;;;;;5025686;28;20224;-69
2023/05/08 12:21:36;;;;;;;2.00;1.77;;;20.50;46.80;;;;;;5026218;28;20589;-68
2023/05/08 12:24:07;;;;;;;3.63;1.93;;;20.00;45.60;;;;;;5025649;28;20498;-68
2023/05/08 12:26:36;;;;;;;6.63;2.43;;;20.30;46.60;;;;;;5022789;28;20708;-68
2023/05/08 12:29:07;;;;;;;2.43;1.93;;;19.90;46.70;;;;;;5015760;28;20340;-68
2023/05/08 12:31:34;;;;;;;3.17;2.90;;;20.60;45.40;;;;;;5024554;28;20459;-68
2023/05/08 12:34:01;;;;;;;2.00;1.90;;;20.40;46.90;;;;;;5027171;28;20578;-68
2023/05/08 12:36:27;;;;;;;1.87;1.60;;;20.80;44.20;;;;;;5026166;28;20211;-68
2023/05/08 12:39:17;;;;;;;3.23;1.97;;;20.50;46.20;;;;;;5025585;28;20203;-68
2023/05/08 12:41:50;;;;;;;2.03;1.90;;;21.00;46.00;;;;;;5024383;28;20215;-68
2023/05/08 12:44:17;;;;;;;2.50;2.17;;;21.40;44.40;;;;;;5027036;28;20235;-68
2023/05/08 12:46:48;;;;;;;2.20;2.00;;;20.50;44.00;;;;;;5027207;28;20197;-68
2023/05/08 12:49:22;;;;;;;3.90;2.00;;;20.70;45.40;;;;;;5024636;28;20223;-67
2023/05/08 12:51:49;;;;;;;2.40;2.20;;;20.70;45.30;;;;;;5025505;28;21034;-68
2023/05/08 12:54:15;;;;;;;1.80;1.70;;;21.20;45.00;;;;;;5025484;28;20292;-68
2023/05/08 12:56:43;;;;;;;2.60;1.67;;;21.50;43.80;;;;;;5026661;28;20211;-69
2023/05/08 12:59:09;;;;;;;2.57;2.00;;;21.00;44.70;;;;;;5026543;28;20199;-67
2023/05/08 13:01:34;;;;;;;3.23;2.90;;;21.30;46.30;;;;;;5026484;28;20269;-67
2023/05/08 13:04:00;;;;;;;1.90;1.73;;;22.00;43.60;;;;;;5024730;28;20195;-67